createdAt,value
2023-03-10T00:01:41.609Z,97389.66
2023-03-10T00:04:09.436Z,97382.59
2023-03-10T00:06:45.362Z,97373.34
2023-03-10T00:09:14.129Z,97370.91
2023-03-10T00:11:41.591Z,97371.94
2023-03-10T00:14:09.060Z,97364.44
2023-03-10T00:16:36.499Z,97355.56
2023-03-10T00:19:07.169Z,97363.28
2023-03-10T00:21:34.603Z,97346.47
2023-03-10T00:27:00.460Z,97329.78
2023-03-10T00:29:28.745Z,97320.31
2023-03-10T00:34:59.129Z,97302.91
2023-03-10T00:37:26.910Z,97310.25
2023-03-10T00:39:57.009Z,97298.75
2023-03-10T00:42:25.766Z,97299.31
2023-03-10T00:44:53.429Z,97281.09
2023-03-10T00:47:22.749Z,97280.94
2023-03-10T00:49:51.521Z,97269.22
2023-03-10T00:52:19.016Z,97261.19
2023-03-10T00:54:46.455Z,97261.59
2023-03-10T00:57:13.961Z,97245.19
2023-03-10T00:59:50.331Z,97245.28
2023-03-10T01:02:18.382Z,97237.16
2023-03-10T01:04:45.907Z,97238.03
2023-03-10T01:07:13.406Z,97233.41
2023-03-10T01:09:40.842Z,97222.69
2023-03-10T01:12:09.161Z,97210.16
2023-03-10T01:14:37.012Z,97208.56
2023-03-10T01:17:05.974Z,97201.28
2023-03-10T01:19:33.556Z,97188.91
2023-03-10T01:22:02.117Z,97181.66
2023-03-10T01:24:29.589Z,97176.00
2023-03-10T01:26:57.014Z,97174.78
2023-03-10T01:32:24.687Z,97159.19
2023-03-10T01:34:52.190Z,97151.31
2023-03-10T01:37:21.099Z,97136.53
2023-03-10T01:39:48.606Z,97126.19
2023-03-10T01:42:16.263Z,97118.91
2023-03-10T01:44:43.975Z,97120.28
2023-03-10T01:50:13.982Z,97095.84
2023-03-10T01:52:42.752Z,97082.31
2023-03-10T01:55:12.857Z,97082.53
2023-03-10T01:57:43.051Z,97078.72
2023-03-10T02:03:13.657Z,97064.09
2023-03-10T02:08:48.849Z,97041.91
2023-03-10T02:11:16.727Z,97045.94
2023-03-10T02:13:44.325Z,97043.59
2023-03-10T02:16:11.815Z,97028.56
2023-03-10T02:18:40.028Z,97016.03
2023-03-10T02:21:12.267Z,97026.66
2023-03-10T02:23:58.866Z,97019.81
2023-03-10T02:26:35.558Z,97041.31
2023-03-10T02:29:07.778Z,97028.69
2023-03-10T02:31:35.563Z,97005.56
2023-03-10T02:34:06.500Z,97003.16
2023-03-10T02:36:34.074Z,96996.31
2023-03-10T02:39:01.505Z,96997.03
2023-03-10T02:41:31.667Z,96993.06
2023-03-10T02:44:01.258Z,96988.47
2023-03-10T02:46:32.185Z,96973.16
2023-03-10T02:49:00.409Z,96967.31
2023-03-10T02:51:37.149Z,96966.63
2023-03-10T02:56:57.141Z,96962.13
2023-03-10T02:59:24.683Z,96977.72
2023-03-10T03:02:12.108Z,96958.16
2023-03-10T03:04:40.003Z,96971.28
2023-03-10T03:07:08.129Z,96967.25
2023-03-10T03:09:36.394Z,96967.81
2023-03-10T03:12:03.992Z,96966.84
2023-03-10T03:14:31.812Z,96993.25
2023-03-10T03:16:59.457Z,96979.09
2023-03-10T03:19:29.892Z,96996.25
2023-03-10T03:21:58.008Z,97000.19
2023-03-10T03:24:25.929Z,96993.28
2023-03-10T03:26:53.393Z,97009.97
2023-03-10T03:29:24.823Z,97008.03
2023-03-10T03:31:53.410Z,97026.81
2023-03-10T03:34:25.040Z,97036.69
2023-03-10T03:37:33.013Z,97041.63
2023-03-10T03:40:01.781Z,97048.22
2023-03-10T03:42:29.785Z,97061.34
2023-03-10T03:44:57.613Z,97064.38
2023-03-10T03:50:24.152Z,97075.50
2023-03-10T03:52:53.662Z,97068.03
2023-03-10T03:55:24.842Z,97075.72
2023-03-10T03:57:53.436Z,97072.31
2023-03-10T04:00:23.079Z,97082.75
2023-03-10T04:05:48.098Z,97097.13
2023-03-10T04:08:15.642Z,97086.66
2023-03-10T04:10:51.132Z,97087.91
2023-03-10T04:13:18.842Z,97083.56
2023-03-10T04:15:46.393Z,97089.53
2023-03-10T04:18:13.994Z,97091.84
2023-03-10T04:20:41.514Z,97080.91
2023-03-10T04:23:09.029Z,97089.41
2023-03-10T04:25:37.234Z,97088.84
2023-03-10T04:31:14.110Z,97095.78
2023-03-10T04:33:41.716Z,97087.47
2023-03-10T04:36:09.514Z,97087.69
2023-03-10T04:38:37.847Z,97093.09
2023-03-10T04:41:06.237Z,97096.13
2023-03-10T04:43:41.999Z,97090.56
2023-03-10T04:46:10.173Z,97091.84
2023-03-10T04:51:28.539Z,97088.38
2023-03-10T04:53:57.987Z,97085.53
2023-03-10T04:56:29.696Z,97082.06
2023-03-10T04:58:57.420Z,97084.94
2023-03-10T05:04:22.715Z,97079.78
2023-03-10T05:09:50.562Z,97084.03
2023-03-10T05:12:18.728Z,97075.63
2023-03-10T05:14:46.235Z,97067.78
2023-03-10T05:17:13.940Z,97076.78
2023-03-10T05:22:40.373Z,97083.91
2023-03-10T05:25:12.552Z,97085.28
2023-03-10T05:27:41.835Z,97091.59
2023-03-10T05:30:11.997Z,97094.97
2023-03-10T05:32:39.549Z,97094.50
2023-03-10T05:35:07.980Z,97101.84
2023-03-10T05:40:27.451Z,97105.88
2023-03-10T05:42:55.047Z,97107.09
2023-03-10T05:45:23.802Z,97113.00
2023-03-10T05:50:59.998Z,97116.84
2023-03-10T05:53:28.495Z,97120.31
2023-03-10T05:55:58.135Z,97116.88
2023-03-10T05:58:27.085Z,97124.41
2023-03-10T06:00:55.179Z,97120.00
2023-03-10T06:03:23.772Z,97124.94
2023-03-10T06:08:50.223Z,97121.09
2023-03-10T06:11:19.336Z,97120.63
2023-03-10T06:13:46.785Z,97118.88
2023-03-10T06:16:14.280Z,97117.06
2023-03-10T06:18:41.719Z,97129.56
2023-03-10T06:23:59.040Z,97126.28
2023-03-10T06:26:27.862Z,97128.69
2023-03-10T06:28:55.291Z,97127.84
2023-03-10T06:31:24.380Z,97142.25
2023-03-10T06:33:52.189Z,97150.28
2023-03-10T06:36:23.234Z,97139.38
2023-03-10T06:38:50.930Z,97141.00
2023-03-10T06:44:18.539Z,97147.16
2023-03-10T06:46:46.166Z,97141.06
2023-03-10T06:49:13.625Z,97155.19
2023-03-10T06:51:41.120Z,97143.63
2023-03-10T06:54:08.580Z,97140.75
2023-03-10T06:56:36.067Z,97162.06
2023-03-10T06:59:31.552Z,97146.28
2023-03-10T07:01:59.053Z,97159.25
2023-03-10T07:07:25.151Z,97160.91
2023-03-10T07:09:52.574Z,97157.47
2023-03-10T07:12:20.039Z,97164.00
2023-03-10T07:14:48.871Z,97161.78
2023-03-10T07:17:16.288Z,97171.03
2023-03-10T07:19:44.061Z,97177.16
2023-03-10T07:25:00.172Z,97180.41
2023-03-10T07:27:27.576Z,97183.06
2023-03-10T07:29:56.469Z,97185.25
2023-03-10T07:33:01.022Z,97188.50
2023-03-10T07:35:28.544Z,97200.44
2023-03-10T07:37:56.033Z,97198.84
2023-03-10T07:40:24.911Z,97199.41
2023-03-10T07:42:54.359Z,97215.00
2023-03-10T07:45:23.776Z,97209.34
2023-03-10T07:48:29.023Z,97207.09
2023-03-10T07:50:57.762Z,97211.97
2023-03-10T07:53:25.544Z,97222.88
2023-03-10T07:55:54.346Z,97209.94
2023-03-10T07:58:36.186Z,97216.41
2023-03-10T08:01:05.515Z,97220.63
2023-03-10T08:06:35.877Z,97206.00
2023-03-10T08:09:05.452Z,97203.09
2023-03-10T08:11:32.947Z,97204.78
2023-03-10T08:16:46.967Z,97213.53
2023-03-10T08:19:14.496Z,97203.44
2023-03-10T08:21:41.901Z,97212.41
2023-03-10T08:24:09.400Z,97226.44
2023-03-10T08:26:37.719Z,97210.78
2023-03-10T08:32:09.728Z,97221.97
2023-03-10T08:34:37.379Z,97211.44
2023-03-10T08:40:08.032Z,97220.16
2023-03-10T08:42:36.931Z,97219.50
2023-03-10T08:45:08.055Z,97217.25
2023-03-10T08:47:50.215Z,97214.28
2023-03-10T08:50:19.513Z,97216.66
2023-03-10T08:55:49.206Z,97211.00
2023-03-10T08:58:16.776Z,97204.63
2023-03-10T09:00:44.758Z,97210.28
2023-03-10T09:03:15.095Z,97206.75
2023-03-10T09:05:44.419Z,97207.13
2023-03-10T09:11:11.204Z,97213.56
2023-03-10T09:13:39.270Z,97215.56
2023-03-10T09:16:11.182Z,97214.91
2023-03-10T09:18:39.003Z,97215.69
2023-03-10T09:21:08.807Z,97218.34
2023-03-10T09:23:36.338Z,97210.66
2023-03-10T09:26:03.967Z,97212.31
2023-03-10T09:28:31.494Z,97219.41
2023-03-10T09:30:59.014Z,97222.03
2023-03-10T09:33:26.449Z,97223.56
2023-03-10T09:36:06.763Z,97226.25
2023-03-10T09:38:36.248Z,97235.91
2023-03-10T09:41:11.576Z,97221.31
2023-03-10T09:43:41.096Z,97235.06
2023-03-10T09:46:15.480Z,97228.53
2023-03-10T09:48:48.755Z,97232.91
2023-03-10T09:51:18.171Z,97235.47
2023-03-10T09:54:09.564Z,97232.00
2023-03-10T09:56:38.572Z,97237.09
2023-03-10T10:01:54.408Z,97229.47
2023-03-10T10:04:24.469Z,97220.94
2023-03-10T10:06:52.079Z,97221.53
2023-03-10T10:09:27.160Z,97230.56
2023-03-10T10:14:56.687Z,97232.09
2023-03-10T10:17:52.941Z,97231.69
2023-03-10T10:20:24.832Z,97227.94
2023-03-10T10:25:42.617Z,97229.84
2023-03-10T10:31:15.829Z,97241.75
2023-03-10T10:33:58.125Z,97241.00
2023-03-10T10:36:26.794Z,97240.75
2023-03-10T10:38:56.050Z,97249.84
2023-03-10T10:41:26.969Z,97241.38
2023-03-10T10:46:53.874Z,97248.91
2023-03-10T10:49:24.445Z,97239.22
2023-03-10T10:51:59.966Z,97234.59
2023-03-10T10:54:29.190Z,97234.19
2023-03-10T10:56:58.510Z,97238.19
2023-03-10T10:59:29.901Z,97238.38
2023-03-10T11:01:59.796Z,97237.31
2023-03-10T11:04:29.125Z,97229.81
2023-03-10T11:07:11.302Z,97226.03
2023-03-10T11:09:38.964Z,97225.09
2023-03-10T11:12:09.295Z,97215.66
2023-03-10T11:14:45.289Z,97232.88
2023-03-10T11:17:18.701Z,97235.63
2023-03-10T11:19:57.295Z,97235.91
2023-03-10T11:22:32.411Z,97230.94
2023-03-10T11:25:02.826Z,97231.06
2023-03-10T11:30:21.372Z,97220.75
2023-03-10T11:33:03.845Z,97225.09
2023-03-10T11:35:35.603Z,97230.19
2023-03-10T11:38:08.532Z,97219.28
2023-03-10T11:40:43.393Z,97220.72
2023-03-10T11:43:17.201Z,97223.88
2023-03-10T11:45:48.605Z,97222.34
2023-03-10T11:48:26.613Z,97229.56
2023-03-10T11:51:00.036Z,97233.59
2023-03-10T11:53:33.110Z,97228.81
2023-03-10T11:56:01.371Z,97226.06
2023-03-10T11:58:37.410Z,97226.44
2023-03-10T12:01:19.851Z,97228.28
2023-03-10T12:03:53.250Z,97224.31
2023-03-10T12:09:33.039Z,97220.59
2023-03-10T12:12:02.114Z,97218.59
2023-03-10T12:14:29.730Z,97222.28
2023-03-10T12:16:57.289Z,97214.50
2023-03-10T12:19:26.074Z,97211.78
2023-03-10T12:22:24.059Z,97203.00
2023-03-10T12:24:52.911Z,97211.25
2023-03-10T12:27:20.427Z,97207.72
2023-03-10T12:29:48.221Z,97196.19
2023-03-10T12:32:39.641Z,97202.03
2023-03-10T12:35:33.184Z,97201.16
2023-03-10T12:38:29.354Z,97196.63
2023-03-10T12:40:56.961Z,97207.38
2023-03-10T12:43:53.874Z,97188.81
2023-03-10T12:46:24.589Z,97177.25
2023-03-10T12:49:03.552Z,97186.25
2023-03-10T12:51:37.519Z,97193.00
2023-03-10T12:54:14.098Z,97195.31
2023-03-10T12:59:28.599Z,97174.78
2023-03-10T13:01:58.527Z,97182.50
2023-03-10T13:04:26.801Z,97184.84
2023-03-10T13:09:56.787Z,97183.41
2023-03-10T13:12:30.815Z,97181.66
2023-03-10T13:14:59.562Z,97178.28
2023-03-10T13:20:29.140Z,97165.84
2023-03-10T13:22:59.677Z,97173.81
2023-03-10T13:25:27.658Z,97167.69
2023-03-10T13:27:57.280Z,97164.00
2023-03-10T13:30:26.486Z,97164.09
2023-03-10T13:32:55.893Z,97161.56
2023-03-10T13:35:25.090Z,97159.88
2023-03-10T13:40:59.690Z,97161.06
2023-03-10T13:46:28.095Z,97153.06
2023-03-10T13:48:58.012Z,97150.56
2023-03-10T13:51:31.761Z,97156.00
2023-03-10T13:54:14.660Z,97152.88
2023-03-10T13:59:33.345Z,97149.66
2023-03-10T14:02:02.059Z,97155.00
2023-03-10T14:04:46.950Z,97151.16
2023-03-10T14:07:18.208Z,97144.75
2023-03-10T14:09:47.207Z,97147.94
2023-03-10T14:12:15.919Z,97145.16
2023-03-10T14:14:44.885Z,97140.78
2023-03-10T14:17:30.873Z,97144.13
2023-03-10T14:19:58.672Z,97141.59
2023-03-10T14:22:31.607Z,97146.53
2023-03-10T14:25:01.611Z,97146.56
2023-03-10T14:27:29.187Z,97143.81
2023-03-10T14:29:59.655Z,97139.44
2023-03-10T14:32:27.162Z,97144.22
2023-03-10T14:34:54.647Z,97137.84
2023-03-10T14:37:22.073Z,97129.06
2023-03-10T14:42:53.305Z,97131.94
2023-03-10T14:45:27.540Z,97148.91
2023-03-10T14:47:56.746Z,97154.81
2023-03-10T14:50:25.266Z,97155.94
2023-03-10T14:52:52.717Z,97168.41
2023-03-10T14:55:20.318Z,97171.63
2023-03-10T15:00:47.946Z,97172.41
2023-03-10T15:03:18.075Z,97164.69
2023-03-10T15:05:49.123Z,97167.72
2023-03-10T15:08:17.012Z,97163.94
2023-03-10T15:10:47.967Z,97167.47
2023-03-10T15:13:15.832Z,97166.63
2023-03-10T15:15:45.361Z,97175.25
2023-03-10T15:18:41.104Z,97159.06
2023-03-10T15:21:10.335Z,97155.38
2023-03-10T15:26:36.160Z,97140.75
2023-03-10T15:29:03.699Z,97145.66
2023-03-10T15:31:31.212Z,97141.06
2023-03-10T15:33:58.790Z,97141.84
2023-03-10T15:36:27.904Z,97141.28
2023-03-10T15:38:55.320Z,97132.56
2023-03-10T15:41:23.578Z,97142.69
2023-03-10T15:43:51.395Z,97137.47
2023-03-10T15:46:18.994Z,97121.16
2023-03-10T15:48:46.423Z,97114.00
2023-03-10T15:51:17.329Z,97115.00
2023-03-10T15:53:46.187Z,97113.19
2023-03-10T15:56:15.243Z,97102.28
2023-03-10T15:58:42.967Z,97095.63
2023-03-10T16:01:11.229Z,97091.22
2023-03-10T16:03:38.868Z,97099.34
2023-03-10T16:06:09.402Z,97098.16
2023-03-10T16:08:38.664Z,97093.75
2023-03-10T16:11:10.177Z,97090.47
2023-03-10T16:13:37.606Z,97083.91
2023-03-10T16:16:07.189Z,97088.41
2023-03-10T16:18:35.183Z,97094.50
2023-03-10T16:21:03.958Z,97080.03
2023-03-10T16:23:33.130Z,97090.72
2023-03-10T16:26:07.613Z,97090.13
2023-03-10T16:28:35.515Z,97099.66
2023-03-10T16:31:06.328Z,97092.66
2023-03-10T16:33:34.495Z,97085.00
2023-03-10T16:38:50.506Z,97094.09
2023-03-10T16:41:19.268Z,97084.06
2023-03-10T16:43:47.344Z,97100.75
2023-03-10T16:49:18.059Z,97085.16
2023-03-10T16:51:46.451Z,97095.72
2023-03-10T16:54:16.068Z,97101.72
2023-03-10T16:56:47.512Z,97105.72
2023-03-10T16:59:18.532Z,97098.56
2023-03-10T17:01:46.386Z,97103.94
2023-03-10T17:04:13.908Z,97112.19
2023-03-10T17:06:41.538Z,97137.91
2023-03-10T17:09:10.198Z,97120.88
2023-03-10T17:11:39.342Z,97129.78
2023-03-10T17:14:09.838Z,97128.81
2023-03-10T17:16:37.719Z,97127.41
2023-03-10T17:19:08.358Z,97125.75
2023-03-10T17:21:39.153Z,97128.09
2023-03-10T17:24:08.698Z,97114.44
2023-03-10T17:26:36.504Z,97115.50
2023-03-10T17:32:07.687Z,97136.13
2023-03-10T17:34:35.258Z,97133.69
2023-03-10T17:37:02.714Z,97132.69
2023-03-10T17:42:19.099Z,97143.41
2023-03-10T17:44:46.591Z,97145.91
2023-03-10T17:47:15.340Z,97148.34
2023-03-10T17:52:45.090Z,97150.47
2023-03-10T17:55:15.220Z,97153.94
2023-03-10T17:57:42.662Z,97151.09
2023-03-10T18:00:11.607Z,97150.72
2023-03-10T18:02:43.101Z,97160.00
2023-03-10T18:05:11.632Z,97164.25
2023-03-10T18:07:39.115Z,97174.97
2023-03-10T18:10:08.455Z,97183.25
2023-03-10T18:12:36.037Z,97185.56
2023-03-10T18:15:03.582Z,97196.84
2023-03-10T18:17:30.975Z,97215.25
2023-03-10T18:20:00.991Z,97227.19
2023-03-10T18:22:28.403Z,97239.41
2023-03-10T18:25:01.291Z,97261.19
2023-03-10T18:27:28.729Z,97265.03
2023-03-10T18:29:56.183Z,97282.34
2023-03-10T18:35:23.483Z,97313.53
2023-03-10T18:37:50.916Z,97318.25
2023-03-10T18:40:18.396Z,97340.16
2023-03-10T18:42:45.799Z,97349.72
2023-03-10T18:45:13.379Z,97379.56
2023-03-10T18:47:41.632Z,97384.84
2023-03-10T18:50:10.659Z,97409.31
2023-03-10T18:52:39.717Z,97421.38
2023-03-10T18:55:07.845Z,97444.59
2023-03-10T18:57:35.352Z,97443.25
2023-03-10T19:00:05.077Z,97481.66
2023-03-10T19:02:32.570Z,97498.72
2023-03-10T19:05:03.284Z,97528.25
2023-03-10T19:07:30.718Z,97554.09
2023-03-10T19:12:48.461Z,97572.75
2023-03-10T19:15:17.589Z,97582.72
2023-03-10T19:17:45.617Z,97604.59
2023-03-10T19:20:14.675Z,97611.97
2023-03-10T19:22:42.991Z,97627.94
2023-03-10T19:25:11.918Z,97636.75
2023-03-10T19:27:40.557Z,97642.97
2023-03-10T19:30:12.126Z,97645.56
2023-03-10T19:32:39.866Z,97663.38
2023-03-10T19:35:09.112Z,97676.28
2023-03-10T19:37:37.134Z,97689.88
2023-03-10T19:40:06.202Z,97708.31
2023-03-10T19:42:34.052Z,97716.50
2023-03-10T19:47:52.276Z,97736.44
2023-03-10T19:50:19.912Z,97755.41
2023-03-10T19:52:48.848Z,97764.56
2023-03-10T19:55:19.408Z,97778.28
2023-03-10T19:57:48.154Z,97798.38
2023-03-10T20:00:18.635Z,97798.69
2023-03-10T20:02:46.161Z,97809.50
2023-03-10T20:05:15.811Z,97835.97
2023-03-10T20:07:46.227Z,97848.25
2023-03-10T20:10:14.263Z,97861.13
2023-03-10T20:12:41.860Z,97870.44
2023-03-10T20:15:09.652Z,97896.44
2023-03-10T20:17:37.541Z,97911.66
2023-03-10T20:20:09.958Z,97920.00
2023-03-10T20:25:35.939Z,97944.00
2023-03-10T20:31:16.870Z,97967.38
2023-03-10T20:33:44.363Z,97983.41
2023-03-10T20:36:13.880Z,98010.06
2023-03-10T20:38:41.553Z,98007.56
2023-03-10T20:41:10.980Z,98038.16
2023-03-10T20:43:38.411Z,98039.28
2023-03-10T20:46:06.042Z,98038.94
2023-03-10T20:48:33.672Z,98049.59
2023-03-10T20:51:02.863Z,98065.91
2023-03-10T20:53:33.034Z,98078.34
2023-03-10T20:56:00.587Z,98091.75
2023-03-10T20:58:29.364Z,98093.88
2023-03-10T21:00:56.912Z,98101.19
2023-03-10T21:03:27.017Z,98106.13
2023-03-10T21:08:53.358Z,98130.50
2023-03-10T21:11:20.884Z,98135.50
2023-03-10T21:13:50.804Z,98142.06
2023-03-10T21:16:20.664Z,98149.59
2023-03-10T21:21:37.216Z,98165.19
2023-03-10T21:24:05.754Z,98175.47
2023-03-10T21:26:33.517Z,98184.44
2023-03-10T21:29:02.348Z,98153.56
2023-03-10T21:31:29.777Z,98192.41
2023-03-10T21:37:00.667Z,98207.03
2023-03-10T21:39:28.243Z,98220.09
2023-03-10T21:41:55.714Z,98231.38
2023-03-10T21:44:27.077Z,98244.47
2023-03-10T21:46:54.754Z,98249.53
2023-03-10T21:49:22.179Z,98256.03
2023-03-10T21:51:49.722Z,98268.75
2023-03-10T21:54:17.381Z,98263.38
2023-03-10T21:57:08.774Z,98266.31
2023-03-10T21:59:37.517Z,98287.06
2023-03-10T22:05:07.883Z,98303.75
2023-03-10T22:07:35.337Z,98305.38
2023-03-10T22:10:03.002Z,98321.22
2023-03-10T22:12:30.667Z,98337.38
2023-03-10T22:14:59.526Z,98334.34
2023-03-10T22:17:27.571Z,98330.25
2023-03-10T22:22:53.257Z,98349.81
2023-03-10T22:25:21.233Z,98349.44
2023-03-10T22:27:51.563Z,98350.41
2023-03-10T22:30:20.679Z,98368.34
2023-03-10T22:32:48.640Z,98363.72
2023-03-10T22:35:16.665Z,98386.13
2023-03-10T22:37:45.124Z,98390.84
2023-03-10T22:40:16.015Z,98397.56
2023-03-10T22:42:44.407Z,98403.31
2023-03-10T22:48:03.434Z,98420.38
2023-03-10T22:53:38.107Z,98434.81
2023-03-10T22:56:06.283Z,98443.97
2023-03-10T22:58:33.758Z,98448.78
2023-03-10T23:01:01.448Z,98466.69
2023-03-10T23:03:30.354Z,98460.72
2023-03-10T23:08:56.469Z,98480.06
2023-03-10T23:11:24.397Z,98479.09
2023-03-10T23:13:51.865Z,98486.81
2023-03-10T23:16:19.679Z,98493.75
2023-03-10T23:18:48.617Z,98494.13
2023-03-10T23:21:16.494Z,98491.53
2023-03-10T23:23:44.014Z,98507.34
2023-03-10T23:26:12.254Z,98506.75
2023-03-10T23:28:39.883Z,98516.38
2023-03-10T23:31:08.022Z,98528.19
2023-03-10T23:33:35.461Z,98525.66
2023-03-10T23:36:04.903Z,98534.22
2023-03-10T23:38:32.437Z,98542.06
2023-03-10T23:40:59.858Z,98554.81
2023-03-10T23:46:16.098Z,98564.44
2023-03-10T23:48:43.602Z,98568.06
2023-03-10T23:51:15.415Z,98580.56
2023-03-10T23:53:43.433Z,98573.84
2023-03-10T23:56:12.447Z,98581.25
2023-03-10T23:58:40.893Z,98593.59
